sensor_id;sensor_type;location;lat;lon;timestamp;P1;P2;P0
80643;PMS5003;70010;60.224;24.712;2023-11-19T00:01:51;48;39;
80643;PMS5003;70010;60.224;24.712;2023-11-19T00:04:16;48;37;
80643;PMS5003;70010;60.224;24.712;2023-11-19T00:06:41;40;32;
80643;PMS5003;70010;60.224;24.712;2023-11-19T00:09:07;31;30;
80643;PMS5003;70010;60.224;24.712;2023-11-19T00:11:32;38;29;
80643;PMS5003;70010;60.224;24.712;2023-11-19T00:13:58;28;21;
80643;PMS5003;70010;60.224;24.712;2023-11-19T00:16:23;21;19;
80643;PMS5003;70010;60.224;24.712;2023-11-19T00:18:49;35;26;
80643;PMS5003;70010;60.224;24.712;2023-11-19T00:21:14;30;22;
80643;PMS5003;70010;60.224;24.712;2023-11-19T00:23:39;27;24;
80643;PMS5003;70010;60.224;24.712;2023-11-19T00:26:05;40;37;
80643;PMS5003;70010;60.224;24.712;2023-11-19T00:28:30;43;33;
80643;PMS5003;70010;60.224;24.712;2023-11-19T00:30:56;53;41;
80643;PMS5003;70010;60.224;24.712;2023-11-19T00:33:21;38;38;
80643;PMS5003;70010;60.224;24.712;2023-11-19T00:35:46;48;38;
80643;PMS5003;70010;60.224;24.712;2023-11-19T00:38:11;46;43;
80643;PMS5003;70010;60.224;24.712;2023-11-19T00:40:36;54;42;
80643;PMS5003;70010;60.224;24.712;2023-11-19T00:43:02;58;46;
80643;PMS5003;70010;60.224;24.712;2023-11-19T00:45:28;60;47;
80643;PMS5003;70010;60.224;24.712;2023-11-19T00:47:54;57;41;
80643;PMS5003;70010;60.224;24.712;2023-11-19T00:50:19;48;37;
80643;PMS5003;70010;60.224;24.712;2023-11-19T00:52:45;43;37;
80643;PMS5003;70010;60.224;24.712;2023-11-19T00:55:10;57;46;
80643;PMS5003;70010;60.224;24.712;2023-11-19T00:57:36;61;45;
80643;PMS5003;70010;60.224;24.712;2023-11-19T01:00:01;57;43;
80643;PMS5003;70010;60.224;24.712;2023-11-19T01:02:27;45;40;
80643;PMS5003;70010;60.224;24.712;2023-11-19T01:04:52;50;40;
80643;PMS5003;70010;60.224;24.712;2023-11-19T01:07:18;55;47;
80643;PMS5003;70010;60.224;24.712;2023-11-19T01:09:43;51;40;
80643;PMS5003;70010;60.224;24.712;2023-11-19T01:12:09;55;43;
80643;PMS5003;70010;60.224;24.712;2023-11-19T01:14:34;46;39;
80643;PMS5003;70010;60.224;24.712;2023-11-19T01:17:00;56;43;
80643;PMS5003;70010;60.224;24.712;2023-11-19T01:19:25;43;39;
80643;PMS5003;70010;60.224;24.712;2023-11-19T01:21:50;50;37;
80643;PMS5003;70010;60.224;24.712;2023-11-19T01:24:16;52;40;
80643;PMS5003;70010;60.224;24.712;2023-11-19T01:26:41;41;37;
80643;PMS5003;70010;60.224;24.712;2023-11-19T01:29:06;58;38;
80643;PMS5003;70010;60.224;24.712;2023-11-19T01:31:31;56;41;
80643;PMS5003;70010;60.224;24.712;2023-11-19T01:33:57;49;42;
80643;PMS5003;70010;60.224;24.712;2023-11-19T01:36:22;48;38;
80643;PMS5003;70010;60.224;24.712;2023-11-19T01:38:48;47;42;
80643;PMS5003;70010;60.224;24.712;2023-11-19T01:41:13;46;39;
80643;PMS5003;70010;60.224;24.712;2023-11-19T01:43:39;48;42;
80643;PMS5003;70010;60.224;24.712;2023-11-19T01:46:05;50;36;
80643;PMS5003;70010;60.224;24.712;2023-11-19T01:48:30;51;38;
80643;PMS5003;70010;60.224;24.712;2023-11-19T01:50:55;41;37;
80643;PMS5003;70010;60.224;24.712;2023-11-19T01:53:21;58;38;
80643;PMS5003;70010;60.224;24.712;2023-11-19T01:55:46;50;35;
80643;PMS5003;70010;60.224;24.712;2023-11-19T01:58:12;50;38;
80643;PMS5003;70010;60.224;24.712;2023-11-19T02:00:37;49;39;
80643;PMS5003;70010;60.224;24.712;2023-11-19T02:03:02;45;37;
80643;PMS5003;70010;60.224;24.712;2023-11-19T02:05:27;40;38;
80643;PMS5003;70010;60.224;24.712;2023-11-19T02:07:52;42;37;
80643;PMS5003;70010;60.224;24.712;2023-11-19T02:10:18;56;43;
80643;PMS5003;70010;60.224;24.712;2023-11-19T02:12:43;45;33;
80643;PMS5003;70010;60.224;24.712;2023-11-19T02:15:09;45;37;
80643;PMS5003;70010;60.224;24.712;2023-11-19T02:17:35;51;37;
80643;PMS5003;70010;60.224;24.712;2023-11-19T02:20:01;38;35;
80643;PMS5003;70010;60.224;24.712;2023-11-19T02:22:26;49;37;
80643;PMS5003;70010;60.224;24.712;2023-11-19T02:24:58;51;40;
80643;PMS5003;70010;60.224;24.712;2023-11-19T02:27:19;43;34;
80643;PMS5003;70010;60.224;24.712;2023-11-19T02:29:43;59;37;
80643;PMS5003;70010;60.224;24.712;2023-11-19T02:32:08;46;39;
80643;PMS5003;70010;60.224;24.712;2023-11-19T02:34:34;48;37;
80643;PMS5003;70010;60.224;24.712;2023-11-19T02:37:00;55;39;
80643;PMS5003;70010;60.224;24.712;2023-11-19T02:39:25;58;42;
80643;PMS5003;70010;60.224;24.712;2023-11-19T02:41:50;47;39;
80643;PMS5003;70010;60.224;24.712;2023-11-19T02:44:16;37;32;
80643;PMS5003;70010;60.224;24.712;2023-11-19T02:46:41;55;40;
80643;PMS5003;70010;60.224;24.712;2023-11-19T02:49:06;45;38;
80643;PMS5003;70010;60.224;24.712;2023-11-19T02:51:32;45;33;
80643;PMS5003;70010;60.224;24.712;2023-11-19T02:53:57;41;38;
80643;PMS5003;70010;60.224;24.712;2023-11-19T02:56:23;46;41;
80643;PMS5003;70010;60.224;24.712;2023-11-19T02:58:49;51;39;
80643;PMS5003;70010;60.224;24.712;2023-11-19T03:03:40;46;36;
80643;PMS5003;70010;60.224;24.712;2023-11-19T03:06:06;47;36;
80643;PMS5003;70010;60.224;24.712;2023-11-19T03:08:31;43;37;
80643;PMS5003;70010;60.224;24.712;2023-11-19T03:10:56;41;40;
80643;PMS5003;70010;60.224;24.712;2023-11-19T03:13:21;54;44;
80643;PMS5003;70010;60.224;24.712;2023-11-19T03:15:47;55;35;
80643;PMS5003;70010;60.224;24.712;2023-11-19T03:18:13;47;35;
80643;PMS5003;70010;60.224;24.712;2023-11-19T03:20:38;54;39;
80643;PMS5003;70010;60.224;24.712;2023-11-19T03:23:04;50;39;
80643;PMS5003;70010;60.224;24.712;2023-11-19T03:25:29;42;37;
80643;PMS5003;70010;60.224;24.712;2023-11-19T03:27:54;60;43;
80643;PMS5003;70010;60.224;24.712;2023-11-19T03:30:19;48;38;
80643;PMS5003;70010;60.224;24.712;2023-11-19T03:32:45;47;38;
80643;PMS5003;70010;60.224;24.712;2023-11-19T03:35:10;49;42;
80643;PMS5003;70010;60.224;24.712;2023-11-19T03:37:36;46;36;
80643;PMS5003;70010;60.224;24.712;2023-11-19T03:40:01;54;37;
80643;PMS5003;70010;60.224;24.712;2023-11-19T03:42:27;42;34;
80643;PMS5003;70010;60.224;24.712;2023-11-19T03:44:53;55;42;
80643;PMS5003;70010;60.224;24.712;2023-11-19T03:47:18;50;43;
80643;PMS5003;70010;60.224;24.712;2023-11-19T03:49:46;47;41;
80643;PMS5003;70010;60.224;24.712;2023-11-19T03:52:09;42;34;
80643;PMS5003;70010;60.224;24.712;2023-11-19T03:54:35;53;38;
80643;PMS5003;70010;60.224;24.712;2023-11-19T03:57:01;43;34;
80643;PMS5003;70010;60.224;24.712;2023-11-19T03:59:26;37;32;
80643;PMS5003;70010;60.224;24.712;2023-11-19T04:01:51;41;37;
80643;PMS5003;70010;60.224;24.712;2023-11-19T04:04:17;39;33;
80643;PMS5003;70010;60.224;24.712;2023-11-19T04:06:43;39;34;
80643;PMS5003;70010;60.224;24.712;2023-11-19T04:09:08;50;37;
80643;PMS5003;70010;60.224;24.712;2023-11-19T04:11:35;40;36;
80643;PMS5003;70010;60.224;24.712;2023-11-19T04:13:59;44;35;
80643;PMS5003;70010;60.224;24.712;2023-11-19T04:16:26;47;33;
80643;PMS5003;70010;60.224;24.712;2023-11-19T04:18:50;37;32;
80643;PMS5003;70010;60.224;24.712;2023-11-19T04:21:15;36;32;
80643;PMS5003;70010;60.224;24.712;2023-11-19T04:23:41;47;34;
80643;PMS5003;70010;60.224;24.712;2023-11-19T04:26:06;33;33;
80643;PMS5003;70010;60.224;24.712;2023-11-19T04:28:31;36;35;
80643;PMS5003;70010;60.224;24.712;2023-11-19T04:30:56;46;31;
80643;PMS5003;70010;60.224;24.712;2023-11-19T04:33:22;45;33;
80643;PMS5003;70010;60.224;24.712;2023-11-19T04:35:47;45;35;
80643;PMS5003;70010;60.224;24.712;2023-11-19T04:38:12;44;31;
80643;PMS5003;70010;60.224;24.712;2023-11-19T04:40:37;38;30;
80643;PMS5003;70010;60.224;24.712;2023-11-19T04:43:03;47;30;
80643;PMS5003;70010;60.224;24.712;2023-11-19T04:45:29;48;32;
80643;PMS5003;70010;60.224;24.712;2023-11-19T04:47:55;41;29;
80643;PMS5003;70010;60.224;24.712;2023-11-19T04:50:20;33;29;
80643;PMS5003;70010;60.224;24.712;2023-11-19T04:52:46;27;27;
80643;PMS5003;70010;60.224;24.712;2023-11-19T04:55:12;38;31;
80643;PMS5003;70010;60.224;24.712;2023-11-19T04:57:36;38;31;
80643;PMS5003;70010;60.224;24.712;2023-11-19T05:00:02;44;31;
80643;PMS5003;70010;60.224;24.712;2023-11-19T05:02:27;29;25;
80643;PMS5003;70010;60.224;24.712;2023-11-19T05:04:53;30;28;
80643;PMS5003;70010;60.224;24.712;2023-11-19T05:07:18;45;32;
80643;PMS5003;70010;60.224;24.712;2023-11-19T05:09:44;34;31;
80643;PMS5003;70010;60.224;24.712;2023-11-19T05:12:09;38;29;
80643;PMS5003;70010;60.224;24.712;2023-11-19T05:14:35;31;25;
80643;PMS5003;70010;60.224;24.712;2023-11-19T05:17:00;40;35;
80643;PMS5003;70010;60.224;24.712;2023-11-19T05:19:25;37;30;
80643;PMS5003;70010;60.224;24.712;2023-11-19T05:21:51;30;26;
80643;PMS5003;70010;60.224;24.712;2023-11-19T05:24:16;42;28;
80643;PMS5003;70010;60.224;24.712;2023-11-19T05:26:42;30;28;
80643;PMS5003;70010;60.224;24.712;2023-11-19T05:29:08;34;25;
80643;PMS5003;70010;60.224;24.712;2023-11-19T05:31:33;34;29;
80643;PMS5003;70010;60.224;24.712;2023-11-19T05:33:59;31;26;
80643;PMS5003;70010;60.224;24.712;2023-11-19T05:36:24;40;31;
80643;PMS5003;70010;60.224;24.712;2023-11-19T05:38:50;39;29;
80643;PMS5003;70010;60.224;24.712;2023-11-19T05:41:15;35;28;
80643;PMS5003;70010;60.224;24.712;2023-11-19T05:43:41;31;25;
80643;PMS5003;70010;60.224;24.712;2023-11-19T05:46:06;36;27;
80643;PMS5003;70010;60.224;24.712;2023-11-19T05:48:31;29;24;
80643;PMS5003;70010;60.224;24.712;2023-11-19T05:50:56;26;22;
80643;PMS5003;70010;60.224;24.712;2023-11-19T05:53:22;28;23;
80643;PMS5003;70010;60.224;24.712;2023-11-19T05:55:47;33;25;
80643;PMS5003;70010;60.224;24.712;2023-11-19T05:58:13;24;22;
80643;PMS5003;70010;60.224;24.712;2023-11-19T06:00:38;22;19;
80643;PMS5003;70010;60.224;24.712;2023-11-19T06:03:04;22;18;
80643;PMS5003;70010;60.224;24.712;2023-11-19T06:05:29;19;13;
80643;PMS5003;70010;60.224;24.712;2023-11-19T06:07:55;20;16;
80643;PMS5003;70010;60.224;24.712;2023-11-19T06:10:20;9;9;
80643;PMS5003;70010;60.224;24.712;2023-11-19T06:12:45;8;6;
80643;PMS5003;70010;60.224;24.712;2023-11-19T06:15:11;7;5;
80643;PMS5003;70010;60.224;24.712;2023-11-19T06:17:36;3;3;
80643;PMS5003;70010;60.224;24.712;2023-11-19T06:20:02;4;4;
80643;PMS5003;70010;60.224;24.712;2023-11-19T06:22:27;1;1;
80643;PMS5003;70010;60.224;24.712;2023-11-19T06:24:52;4;2;
80643;PMS5003;70010;60.224;24.712;2023-11-19T06:27:18;2;2;
80643;PMS5003;70010;60.224;24.712;2023-11-19T06:29:43;2;2;
80643;PMS5003;70010;60.224;24.712;2023-11-19T06:32:09;3;2;
80643;PMS5003;70010;60.224;24.712;2023-11-19T06:34:34;2;2;
80643;PMS5003;70010;60.224;24.712;2023-11-19T06:36:59;3;2;
80643;PMS5003;70010;60.224;24.712;2023-11-19T06:39:25;3;3;
80643;PMS5003;70010;60.224;24.712;2023-11-19T06:41:51;3;3;
80643;PMS5003;70010;60.224;24.712;2023-11-19T06:44:15;3;3;
80643;PMS5003;70010;60.224;24.712;2023-11-19T06:46:41;6;5;
80643;PMS5003;70010;60.224;24.712;2023-11-19T06:49:06;3;3;
80643;PMS5003;70010;60.224;24.712;2023-11-19T06:51:31;10;4;
80643;PMS5003;70010;60.224;24.712;2023-11-19T06:53:57;4;3;
80643;PMS5003;70010;60.224;24.712;2023-11-19T06:56:22;5;5;
80643;PMS5003;70010;60.224;24.712;2023-11-19T06:58:47;2;2;
80643;PMS5003;70010;60.224;24.712;2023-11-19T07:01:13;8;5;
80643;PMS5003;70010;60.224;24.712;2023-11-19T07:03:38;4;4;
80643;PMS5003;70010;60.224;24.712;2023-11-19T07:06:04;4;4;
80643;PMS5003;70010;60.224;24.712;2023-11-19T07:08:29;7;5;
80643;PMS5003;70010;60.224;24.712;2023-11-19T07:10:55;4;4;
80643;PMS5003;70010;60.224;24.712;2023-11-19T07:13:20;4;4;
80643;PMS5003;70010;60.224;24.712;2023-11-19T07:15:45;5;4;
80643;PMS5003;70010;60.224;24.712;2023-11-19T07:18:11;5;5;
80643;PMS5003;70010;60.224;24.712;2023-11-19T07:20:36;5;5;
80643;PMS5003;70010;60.224;24.712;2023-11-19T07:23:01;5;5;
80643;PMS5003;70010;60.224;24.712;2023-11-19T07:25:27;3;3;
80643;PMS5003;70010;60.224;24.712;2023-11-19T07:27:52;4;4;
80643;PMS5003;70010;60.224;24.712;2023-11-19T07:30:17;7;5;
80643;PMS5003;70010;60.224;24.712;2023-11-19T07:32:43;4;4;
80643;PMS5003;70010;60.224;24.712;2023-11-19T07:35:08;6;5;
80643;PMS5003;70010;60.224;24.712;2023-11-19T07:37:34;5;4;
80643;PMS5003;70010;60.224;24.712;2023-11-19T07:39:59;5;5;
80643;PMS5003;70010;60.224;24.712;2023-11-19T07:42:24;7;5;
80643;PMS5003;70010;60.224;24.712;2023-11-19T07:44:50;3;3;
80643;PMS5003;70010;60.224;24.712;2023-11-19T07:47:15;4;4;
80643;PMS5003;70010;60.224;24.712;2023-11-19T07:49:41;5;5;
80643;PMS5003;70010;60.224;24.712;2023-11-19T07:52:06;3;3;
80643;PMS5003;70010;60.224;24.712;2023-11-19T07:54:31;8;6;
80643;PMS5003;70010;60.224;24.712;2023-11-19T07:56:57;7;6;
80643;PMS5003;70010;60.224;24.712;2023-11-19T07:59:22;8;6;
80643;PMS5003;70010;60.224;24.712;2023-11-19T08:01:47;8;6;
80643;PMS5003;70010;60.224;24.712;2023-11-19T08:04:13;5;5;
80643;PMS5003;70010;60.224;24.712;2023-11-19T08:06:38;4;4;
80643;PMS5003;70010;60.224;24.712;2023-11-19T08:09:04;5;3;
80643;PMS5003;70010;60.224;24.712;2023-11-19T08:11:29;7;4;
80643;PMS5003;70010;60.224;24.712;2023-11-19T08:13:54;4;4;
80643;PMS5003;70010;60.224;24.712;2023-11-19T08:16:19;3;2;
80643;PMS5003;70010;60.224;24.712;2023-11-19T08:18:44;7;5;
80643;PMS5003;70010;60.224;24.712;2023-11-19T08:21:10;2;2;
80643;PMS5003;70010;60.224;24.712;2023-11-19T08:23:35;2;2;
80643;PMS5003;70010;60.224;24.712;2023-11-19T08:26:01;2;2;
80643;PMS5003;70010;60.224;24.712;2023-11-19T08:28:26;2;2;
80643;PMS5003;70010;60.224;24.712;2023-11-19T08:30:51;2;2;
80643;PMS5003;70010;60.224;24.712;2023-11-19T08:33:17;2;2;
80643;PMS5003;70010;60.224;24.712;2023-11-19T08:35:42;3;3;
80643;PMS5003;70010;60.224;24.712;2023-11-19T08:38:07;2;2;
80643;PMS5003;70010;60.224;24.712;2023-11-19T08:40:33;2;2;
80643;PMS5003;70010;60.224;24.712;2023-11-19T08:42:58;4;2;
80643;PMS5003;70010;60.224;24.712;2023-11-19T08:45:24;1;1;
80643;PMS5003;70010;60.224;24.712;2023-11-19T08:47:49;1;1;
80643;PMS5003;70010;60.224;24.712;2023-11-19T08:50:14;2;2;
80643;PMS5003;70010;60.224;24.712;2023-11-19T08:52:40;1;1;
80643;PMS5003;70010;60.224;24.712;2023-11-19T08:55:05;4;3;
80643;PMS5003;70010;60.224;24.712;2023-11-19T08:57:30;0;0;
80643;PMS5003;70010;60.224;24.712;2023-11-19T08:59:56;1;1;
80643;PMS5003;70010;60.224;24.712;2023-11-19T09:02:21;2;1;
80643;PMS5003;70010;60.224;24.712;2023-11-19T09:04:47;1;1;
80643;PMS5003;70010;60.224;24.712;2023-11-19T09:07:12;3;3;
80643;PMS5003;70010;60.224;24.712;2023-11-19T09:09:38;2;1;
80643;PMS5003;70010;60.224;24.712;2023-11-19T09:12:03;1;1;
80643;PMS5003;70010;60.224;24.712;2023-11-19T09:14:28;2;2;
80643;PMS5003;70010;60.224;24.712;2023-11-19T09:16:53;3;3;
80643;PMS5003;70010;60.224;24.712;2023-11-19T09:19:19;3;2;
80643;PMS5003;70010;60.224;24.712;2023-11-19T09:21:44;4;1;
80643;PMS5003;70010;60.224;24.712;2023-11-19T09:24:09;1;1;
80643;PMS5003;70010;60.224;24.712;2023-11-19T09:26:35;1;1;
80643;PMS5003;70010;60.224;24.712;2023-11-19T09:29:00;0;0;
80643;PMS5003;70010;60.224;24.712;2023-11-19T09:31:26;0;0;
80643;PMS5003;70010;60.224;24.712;2023-11-19T09:33:51;2;2;
80643;PMS5003;70010;60.224;24.712;2023-11-19T09:36:16;3;3;
80643;PMS5003;70010;60.224;24.712;2023-11-19T09:38:42;2;1;
80643;PMS5003;70010;60.224;24.712;2023-11-19T09:41:07;2;2;
80643;PMS5003;70010;60.224;24.712;2023-11-19T09:43:32;1;1;
80643;PMS5003;70010;60.224;24.712;2023-11-19T09:45:58;0;0;
80643;PMS5003;70010;60.224;24.712;2023-11-19T09:48:23;0;0;
80643;PMS5003;70010;60.224;24.712;2023-11-19T09:50:49;2;1;
80643;PMS5003;70010;60.224;24.712;2023-11-19T09:53:14;1;1;
80643;PMS5003;70010;60.224;24.712;2023-11-19T09:55:39;1;1;
80643;PMS5003;70010;60.224;24.712;2023-11-19T09:58:05;2;2;
80643;PMS5003;70010;60.224;24.712;2023-11-19T10:00:30;3;1;
80643;PMS5003;70010;60.224;24.712;2023-11-19T10:02:55;3;2;
80643;PMS5003;70010;60.224;24.712;2023-11-19T10:05:21;2;2;
80643;PMS5003;70010;60.224;24.712;2023-11-19T10:07:46;1;1;
80643;PMS5003;70010;60.224;24.712;2023-11-19T10:10:12;1;1;
80643;PMS5003;70010;60.224;24.712;2023-11-19T10:12:37;2;2;
80643;PMS5003;70010;60.224;24.712;2023-11-19T10:15:02;1;1;
80643;PMS5003;70010;60.224;24.712;2023-11-19T10:17:28;1;1;
80643;PMS5003;70010;60.224;24.712;2023-11-19T10:19:53;3;2;
80643;PMS5003;70010;60.224;24.712;2023-11-19T10:22:18;2;2;
80643;PMS5003;70010;60.224;24.712;2023-11-19T10:24:44;1;1;
80643;PMS5003;70010;60.224;24.712;2023-11-19T10:27:09;1;1;
80643;PMS5003;70010;60.224;24.712;2023-11-19T10:29:35;1;1;
80643;PMS5003;70010;60.224;24.712;2023-11-19T10:32:00;3;2;
80643;PMS5003;70010;60.224;24.712;2023-11-19T10:34:25;4;2;
80643;PMS5003;70010;60.224;24.712;2023-11-19T10:36:50;1;1;
80643;PMS5003;70010;60.224;24.712;2023-11-19T10:39:16;2;1;
80643;PMS5003;70010;60.224;24.712;2023-11-19T10:41:41;3;1;
80643;PMS5003;70010;60.224;24.712;2023-11-19T10:44:06;2;2;
80643;PMS5003;70010;60.224;24.712;2023-11-19T10:46:37;1;1;
80643;PMS5003;70010;60.224;24.712;2023-11-19T10:48:57;1;1;
80643;PMS5003;70010;60.224;24.712;2023-11-19T10:51:22;1;1;
80643;PMS5003;70010;60.224;24.712;2023-11-19T10:53:47;6;1;
80643;PMS5003;70010;60.224;24.712;2023-11-19T10:56:13;1;1;
80643;PMS5003;70010;60.224;24.712;2023-11-19T10:58:39;1;1;
80643;PMS5003;70010;60.224;24.712;2023-11-19T11:01:05;1;1;
80643;PMS5003;70010;60.224;24.712;2023-11-19T11:03:29;2;2;
80643;PMS5003;70010;60.224;24.712;2023-11-19T11:05:54;5;2;
80643;PMS5003;70010;60.224;24.712;2023-11-19T11:08:20;2;1;
80643;PMS5003;70010;60.224;24.712;2023-11-19T11:10:47;2;2;
80643;PMS5003;70010;60.224;24.712;2023-11-19T11:13:10;3;3;
80643;PMS5003;70010;60.224;24.712;2023-11-19T11:15:36;1;1;
80643;PMS5003;70010;60.224;24.712;2023-11-19T11:18:01;1;1;
80643;PMS5003;70010;60.224;24.712;2023-11-19T11:20:27;1;1;
80643;PMS5003;70010;60.224;24.712;2023-11-19T11:22:54;1;1;
80643;PMS5003;70010;60.224;24.712;2023-11-19T11:25:24;1;1;
80643;PMS5003;70010;60.224;24.712;2023-11-19T11:30:11;1;1;
80643;PMS5003;70010;60.224;24.712;2023-11-19T11:32:35;2;1;
80643;PMS5003;70010;60.224;24.712;2023-11-19T11:35:03;1;1;
80643;PMS5003;70010;60.224;24.712;2023-11-19T11:37:26;1;1;
80643;PMS5003;70010;60.224;24.712;2023-11-19T11:39:49;1;1;
80643;PMS5003;70010;60.224;24.712;2023-11-19T11:47:05;1;1;
80643;PMS5003;70010;60.224;24.712;2023-11-19T11:49:30;2;1;
80643;PMS5003;70010;60.224;24.712;2023-11-19T11:51:57;2;1;
80643;PMS5003;70010;60.224;24.712;2023-11-19T12:01:37;1;1;
80643;PMS5003;70010;60.224;24.712;2023-11-19T12:04:04;1;1;
80643;PMS5003;70010;60.224;24.712;2023-11-19T12:06:28;1;1;
80643;PMS5003;70010;60.224;24.712;2023-11-19T12:08:57;2;2;
80643;PMS5003;70010;60.224;24.712;2023-11-19T12:11:19;2;2;
80643;PMS5003;70010;60.224;24.712;2023-11-19T12:13:52;2;2;
80643;PMS5003;70010;60.224;24.712;2023-11-19T12:16:10;2;2;
80643;PMS5003;70010;60.224;24.712;2023-11-19T12:18:35;4;3;
80643;PMS5003;70010;60.224;24.712;2023-11-19T12:21:00;2;2;
80643;PMS5003;70010;60.224;24.712;2023-11-19T12:23:25;5;3;
80643;PMS5003;70010;60.224;24.712;2023-11-19T12:25:51;4;4;
80643;PMS5003;70010;60.224;24.712;2023-11-19T12:28:16;5;4;
80643;PMS5003;70010;60.224;24.712;2023-11-19T12:30:41;3;3;
80643;PMS5003;70010;60.224;24.712;2023-11-19T12:33:07;3;2;
80643;PMS5003;70010;60.224;24.712;2023-11-19T12:35:32;3;3;
80643;PMS5003;70010;60.224;24.712;2023-11-19T12:37:57;4;4;
80643;PMS5003;70010;60.224;24.712;2023-11-19T12:40:23;5;4;
80643;PMS5003;70010;60.224;24.712;2023-11-19T12:42:48;5;4;
80643;PMS5003;70010;60.224;24.712;2023-11-19T12:45:14;7;5;
80643;PMS5003;70010;60.224;24.712;2023-11-19T12:47:39;4;4;
80643;PMS5003;70010;60.224;24.712;2023-11-19T12:50:05;6;4;
80643;PMS5003;70010;60.224;24.712;2023-11-19T12:52:30;5;4;
80643;PMS5003;70010;60.224;24.712;2023-11-19T12:54:55;5;4;
80643;PMS5003;70010;60.224;24.712;2023-11-19T12:57:20;5;4;
80643;PMS5003;70010;60.224;24.712;2023-11-19T13:02:11;6;5;
80643;PMS5003;70010;60.224;24.712;2023-11-19T13:04:36;5;4;
80643;PMS5003;70010;60.224;24.712;2023-11-19T13:07:02;5;4;
80643;PMS5003;70010;60.224;24.712;2023-11-19T13:09:27;6;6;
80643;PMS5003;70010;60.224;24.712;2023-11-19T13:11:53;5;4;
80643;PMS5003;70010;60.224;24.712;2023-11-19T13:14:18;4;4;
80643;PMS5003;70010;60.224;24.712;2023-11-19T13:16:43;2;2;
80643;PMS5003;70010;60.224;24.712;2023-11-19T13:19:09;8;5;
80643;PMS5003;70010;60.224;24.712;2023-11-19T13:21:34;4;4;
80643;PMS5003;70010;60.224;24.712;2023-11-19T13:23:59;9;6;
80643;PMS5003;70010;60.224;24.712;2023-11-19T13:26:25;6;6;
80643;PMS5003;70010;60.224;24.712;2023-11-19T13:28:50;5;3;
80643;PMS5003;70010;60.224;24.712;2023-11-19T13:31:16;8;6;
80643;PMS5003;70010;60.224;24.712;2023-11-19T13:33:41;7;6;
80643;PMS5003;70010;60.224;24.712;2023-11-19T13:36:06;6;6;
80643;PMS5003;70010;60.224;24.712;2023-11-19T13:38:32;6;6;
80643;PMS5003;70010;60.224;24.712;2023-11-19T13:40:57;9;8;
80643;PMS5003;70010;60.224;24.712;2023-11-19T13:43:22;8;7;
80643;PMS5003;70010;60.224;24.712;2023-11-19T13:45:47;11;9;
80643;PMS5003;70010;60.224;24.712;2023-11-19T13:48:12;9;8;
80643;PMS5003;70010;60.224;24.712;2023-11-19T13:50:38;10;10;
80643;PMS5003;70010;60.224;24.712;2023-11-19T13:53:03;9;7;
80643;PMS5003;70010;60.224;24.712;2023-11-19T13:55:28;9;9;
80643;PMS5003;70010;60.224;24.712;2023-11-19T13:57:54;9;9;
80643;PMS5003;70010;60.224;24.712;2023-11-19T14:00:19;15;11;
80643;PMS5003;70010;60.224;24.712;2023-11-19T14:02:45;13;13;
80643;PMS5003;70010;60.224;24.712;2023-11-19T14:05:10;10;10;
80643;PMS5003;70010;60.224;24.712;2023-11-19T14:07:35;9;9;
80643;PMS5003;70010;60.224;24.712;2023-11-19T14:10:00;10;9;
80643;PMS5003;70010;60.224;24.712;2023-11-19T14:12:26;16;10;
80643;PMS5003;70010;60.224;24.712;2023-11-19T14:14:51;10;9;
80643;PMS5003;70010;60.224;24.712;2023-11-19T14:17:16;12;12;
80643;PMS5003;70010;60.224;24.712;2023-11-19T14:19:41;12;10;
80643;PMS5003;70010;60.224;24.712;2023-11-19T14:22:06;13;13;
80643;PMS5003;70010;60.224;24.712;2023-11-19T14:24:31;12;10;
80643;PMS5003;70010;60.224;24.712;2023-11-19T14:26:57;10;10;
80643;PMS5003;70010;60.224;24.712;2023-11-19T14:29:22;11;10;
80643;PMS5003;70010;60.224;24.712;2023-11-19T14:31:47;8;8;
80643;PMS5003;70010;60.224;24.712;2023-11-19T14:34:12;9;9;
80643;PMS5003;70010;60.224;24.712;2023-11-19T14:36:38;15;11;
80643;PMS5003;70010;60.224;24.712;2023-11-19T14:39:03;17;13;
80643;PMS5003;70010;60.224;24.712;2023-11-19T14:41:28;14;10;
80643;PMS5003;70010;60.224;24.712;2023-11-19T14:43:54;10;10;
80643;PMS5003;70010;60.224;24.712;2023-11-19T14:46:19;11;10;
80643;PMS5003;70010;60.224;24.712;2023-11-19T14:48:45;14;11;
80643;PMS5003;70010;60.224;24.712;2023-11-19T14:51:10;16;13;
80643;PMS5003;70010;60.224;24.712;2023-11-19T14:53:35;14;10;
80643;PMS5003;70010;60.224;24.712;2023-11-19T14:56:01;18;10;
80643;PMS5003;70010;60.224;24.712;2023-11-19T14:58:26;15;13;
80643;PMS5003;70010;60.224;24.712;2023-11-19T15:00:52;15;13;
80643;PMS5003;70010;60.224;24.712;2023-11-19T15:03:17;16;15;
80643;PMS5003;70010;60.224;24.712;2023-11-19T15:05:42;13;12;
80643;PMS5003;70010;60.224;24.712;2023-11-19T15:08:08;18;16;
80643;PMS5003;70010;60.224;24.712;2023-11-19T15:10:33;14;13;
80643;PMS5003;70010;60.224;24.712;2023-11-19T15:12:59;24;16;
80643;PMS5003;70010;60.224;24.712;2023-11-19T15:15:24;13;13;
80643;PMS5003;70010;60.224;24.712;2023-11-19T15:17:49;15;13;
80643;PMS5003;70010;60.224;24.712;2023-11-19T15:20:15;17;13;
80643;PMS5003;70010;60.224;24.712;2023-11-19T15:22:40;10;10;
80643;PMS5003;70010;60.224;24.712;2023-11-19T15:25:06;14;12;
80643;PMS5003;70010;60.224;24.712;2023-11-19T15:27:31;15;15;
80643;PMS5003;70010;60.224;24.712;2023-11-19T15:29:56;17;14;
80643;PMS5003;70010;60.224;24.712;2023-11-19T15:32:21;18;17;
80643;PMS5003;70010;60.224;24.712;2023-11-19T15:34:47;16;14;
80643;PMS5003;70010;60.224;24.712;2023-11-19T15:37:13;22;16;
80643;PMS5003;70010;60.224;24.712;2023-11-19T15:39:38;21;17;
80643;PMS5003;70010;60.224;24.712;2023-11-19T15:42:03;20;15;
80643;PMS5003;70010;60.224;24.712;2023-11-19T15:44:28;25;14;
80643;PMS5003;70010;60.224;24.712;2023-11-19T15:46:54;12;12;
80643;PMS5003;70010;60.224;24.712;2023-11-19T15:49:19;18;14;
80643;PMS5003;70010;60.224;24.712;2023-11-19T15:51:44;16;14;
80643;PMS5003;70010;60.224;24.712;2023-11-19T15:54:09;18;16;
80643;PMS5003;70010;60.224;24.712;2023-11-19T15:56:35;37;20;
80643;PMS5003;70010;60.224;24.712;2023-11-19T15:59:01;17;16;
80643;PMS5003;70010;60.224;24.712;2023-11-19T16:01:27;27;21;
80643;PMS5003;70010;60.224;24.712;2023-11-19T16:03:52;28;24;
80643;PMS5003;70010;60.224;24.712;2023-11-19T16:06:17;32;20;
80643;PMS5003;70010;60.224;24.712;2023-11-19T16:08:43;42;30;
80643;PMS5003;70010;60.224;24.712;2023-11-19T16:11:09;46;35;
80643;PMS5003;70010;60.224;24.712;2023-11-19T16:13:34;60;37;
80643;PMS5003;70010;60.224;24.712;2023-11-19T16:15:59;40;34;
80643;PMS5003;70010;60.224;24.712;2023-11-19T16:18:24;34;28;
80643;PMS5003;70010;60.224;24.712;2023-11-19T16:20:49;47;28;
80643;PMS5003;70010;60.224;24.712;2023-11-19T16:23:14;35;28;